Time;durP1;ratioP1;P1;durP2;ratioP2;P2;SDS_P1;SDS_P2;PMS_P1;PMS_P2;Temp;Humidity;BMP_temperature;BMP_pressure;BME280_temperature;BME280_humidity;BME280_pressure;Samples;Min_cycle;Max_cycle;Signal;HPM_P1;HPM_P2
2022/12/04 00:00:26;;;;;;;23.43;13.80;;;;;;;1.21;100.00;99098.31;5112634;28;20211;-79
2022/12/04 00:02:55;;;;;;;23.23;12.20;;;;;;;1.32;100.00;99091.06;5107966;28;20199;-79
2022/12/04 00:05:24;;;;;;;21.57;11.37;;;;;;;1.35;100.00;99087.50;5108491;28;20709;-79
2022/12/04 00:07:53;;;;;;;21.87;12.40;;;;;;;1.11;100.00;99076.84;5107576;28;20354;-80
2022/12/04 00:10:21;;;;;;;22.03;12.17;;;;;;;1.14;100.00;99081.13;5109782;28;20281;-78
2022/12/04 00:12:51;;;;;;;21.47;11.50;;;;;;;1.16;100.00;99081.97;5111601;28;20191;-79
2022/12/04 00:15:19;;;;;;;23.80;12.73;;;;;;;1.19;100.00;99087.09;5108750;28;20204;-80
2022/12/04 00:17:55;;;;;;;22.37;11.57;;;;;;;1.25;100.00;99094.72;5111725;28;20190;-79
2022/12/04 00:20:24;;;;;;;21.23;11.73;;;;;;;1.36;100.00;99094.44;5112718;28;20350;-80
2022/12/04 00:22:52;;;;;;;20.33;11.57;;;;;;;1.38;100.00;99098.72;5112079;28;20203;-79
2022/12/04 00:25:22;;;;;;;23.43;12.50;;;;;;;1.25;100.00;99088.66;5111077;28;20724;-78
2022/12/04 00:27:51;;;;;;;26.67;13.87;;;;;;;1.12;100.00;99081.16;5109275;28;20244;-79
2022/12/04 00:30:19;;;;;;;23.83;12.80;;;;;;;1.14;100.00;99088.94;5107562;28;20202;-79
2022/12/04 00:32:48;;;;;;;27.20;13.70;;;;;;;1.10;100.00;99080.34;5075191;28;20245;-79
2022/12/04 00:35:18;;;;;;;23.73;12.47;;;;;;;1.12;100.00;99080.31;5111464;28;20198;-79
2022/12/04 00:37:47;;;;;;;25.63;13.80;;;;;;;1.08;100.00;99083.91;5112388;28;20308;-79
2022/12/04 00:40:15;;;;;;;25.27;13.20;;;;;;;1.10;100.00;99088.19;5111538;28;20263;-79
2022/12/04 00:42:45;;;;;;;22.83;12.70;;;;;;;1.08;100.00;99078.69;5106943;28;20656;-78
2022/12/04 00:45:15;;;;;;;24.63;13.00;;;;;;;1.04;100.00;99080.50;5110034;28;20526;-79
2022/12/04 00:47:44;;;;;;;25.03;12.40;;;;;;;1.08;100.00;99076.09;5036516;28;20258;-79
2022/12/04 00:50:14;;;;;;;24.57;13.30;;;;;;;1.17;100.00;99083.66;5069568;28;20192;-79
2022/12/04 00:52:44;;;;;;;22.97;12.07;;;;;;;1.09;100.00;99096.06;5069756;28;20250;-79
2022/12/04 00:55:14;;;;;;;25.27;13.20;;;;;;;1.12;100.00;99095.97;5061440;28;20666;-79
2022/12/04 00:57:42;;;;;;;24.43;12.43;;;;;;;1.24;100.00;99094.75;5065602;28;20192;-79
2022/12/04 01:00:11;;;;;;;25.07;13.13;;;;;;;1.25;100.00;99091.25;5063643;28;20425;-79
2022/12/04 01:02:39;;;;;;;23.77;13.17;;;;;;;1.11;100.00;99089.03;5007533;28;20274;-80
2022/12/04 01:05:09;;;;;;;24.63;13.13;;;;;;;1.16;100.00;99089.78;5014857;28;20239;-79
2022/12/04 01:07:38;;;;;;;27.67;13.50;;;;;;;1.09;100.00;99083.88;5049275;28;20225;-79
2022/12/04 01:10:13;;;;;;;25.93;13.73;;;;;;;1.21;100.00;99098.31;5048305;28;20687;-79
2022/12/04 01:12:42;;;;;;;21.13;12.93;;;;;;;1.21;100.00;99095.72;5049229;28;20208;-79
2022/12/04 01:15:12;;;;;;;24.57;12.83;;;;;;;1.12;100.00;99096.81;5050787;28;20196;-79
2022/12/04 01:17:40;;;;;;;25.40;13.37;;;;;;;1.14;100.00;99097.63;5047326;28;20193;-79
2022/12/04 01:20:11;;;;;;;26.37;13.67;;;;;;;1.15;100.00;99104.53;5059041;28;20219;-79
2022/12/04 01:22:40;;;;;;;20.43;11.73;;;;;;;1.40;100.00;99103.88;5110891;28;20195;-80
2022/12/04 01:25:12;;;;;;;20.67;12.57;;;;;;;1.26;100.00;99099.06;5114211;28;20255;-79
2022/12/04 01:27:41;;;;;;;22.13;12.57;;;;;;;1.39;100.00;99091.75;5111761;28;20199;-79
2022/12/04 01:30:11;;;;;;;24.20;13.60;;;;;;;1.29;100.00;99092.91;5115693;27;20255;-78
2022/12/04 01:32:40;;;;;;;19.30;11.20;;;;;;;1.31;100.00;99091.94;5109326;28;20229;-79
2022/12/04 01:35:09;;;;;;;22.93;12.17;;;;;;;1.43;100.00;99089.00;5112599;28;20236;-79
2022/12/04 01:37:38;;;;;;;24.50;13.47;;;;;;;1.35;100.00;99080.56;5113156;28;20191;-79
2022/12/04 01:40:12;;;;;;;24.60;13.57;;;;;;;1.30;100.00;99066.78;5108797;28;20218;-79
2022/12/04 01:42:42;;;;;;;26.70;13.97;;;;;;;1.17;100.00;99064.56;5095518;28;20186;-79
2022/12/04 01:45:40;;;;;;;25.63;13.57;;;;;;;1.25;100.00;99062.56;5115115;28;20241;-79
2022/12/04 01:48:19;;;;;;;35.93;15.80;;;;;;;1.17;100.00;99064.56;5115156;28;20187;-79
2022/12/04 01:50:52;;;;;;;21.70;12.27;;;;;;;1.18;100.00;99063.66;5115644;28;20202;-79
2022/12/04 01:53:21;;;;;;;22.00;11.77;;;;;;;1.31;100.00;99052.81;5115334;27;20236;-79
2022/12/04 01:55:51;;;;;;;28.03;13.83;;;;;;;1.33;100.00;99047.56;5108856;28;20232;-79
2022/12/04 01:58:27;;;;;;;23.10;12.77;;;;;;;1.22;100.00;99047.84;5112204;28;20232;-79
2022/12/04 02:01:01;;;;;;;24.87;13.43;;;;;;;1.18;100.00;99048.00;5114505;27;20230;-79
2022/12/04 02:03:37;;;;;;;29.80;13.57;;;;;;;1.13;100.00;99053.34;5114854;28;20195;-79
2022/12/04 02:06:07;;;;;;;23.43;12.83;;;;;;;1.20;100.00;99054.88;5114828;28;20662;-79
2022/12/04 02:08:37;;;;;;;23.03;13.30;;;;;;;1.06;100.00;99051.78;5112131;28;20630;-80
2022/12/04 02:11:17;;;;;;;25.57;14.07;;;;;;;1.01;100.00;99049.31;5114017;27;20195;-79
2022/12/04 02:13:56;;;;;;;30.63;13.80;;;;;;;0.97;100.00;99041.63;5114741;28;20244;-79
2022/12/04 02:16:35;;;;;;;22.60;12.97;;;;;;;1.09;100.00;99041.28;5086497;28;20216;-79
2022/12/04 02:19:22;;;;;;;27.40;14.90;;;;;;;1.14;100.00;99057.66;5115530;28;20195;-79
2022/12/04 02:21:56;;;;;;;27.07;13.87;;;;;;;1.13;100.00;99045.50;5110881;28;20214;-79
2022/12/04 02:24:42;;;;;;;20.70;11.77;;;;;;;1.09;100.00;99038.69;5114853;27;20260;-79
2022/12/04 02:27:33;;;;;;;24.53;13.70;;;;;;;0.93;100.00;99042.59;5114438;28;20195;-79
2022/12/04 02:30:06;;;;;;;25.10;13.50;;;;;;;0.95;100.00;99036.44;5112902;28;20236;-79
2022/12/04 02:32:42;;;;;;;24.47;13.30;;;;;;;0.95;100.00;99048.63;5114199;27;20202;-79
2022/12/04 02:35:15;;;;;;;22.90;12.90;;;;;;;1.07;100.00;99049.16;5114126;28;20291;-79
2022/12/04 02:37:48;;;;;;;26.30;13.17;;;;;;;0.91;100.00;99053.06;5110215;28;20243;-79
2022/12/04 02:40:22;;;;;;;19.00;10.63;;;;;;;0.94;100.00;99065.16;5115726;27;20244;-79
2022/12/04 02:42:58;;;;;;;19.73;12.17;;;;;;;0.98;100.00;99075.47;5114075;28;20186;-79
2022/12/04 02:45:38;;;;;;;21.03;12.13;;;;;;;1.17;100.00;99077.59;5115689;27;20213;-79
2022/12/04 02:48:09;;;;;;;20.03;11.80;;;;;;;0.97;100.00;99073.78;5116263;27;20236;-79
2022/12/04 02:50:40;;;;;;;20.23;11.70;;;;;;;1.04;100.00;99074.44;5112135;28;20241;-79
2022/12/04 02:53:15;;;;;;;22.30;12.43;;;;;;;0.96;100.00;99071.19;5111974;28;20194;-79
2022/12/04 02:55:48;;;;;;;20.20;11.27;;;;;;;1.02;100.00;99078.84;5112387;28;20182;-79
2022/12/04 02:58:23;;;;;;;22.03;11.47;;;;;;;1.12;100.00;99075.94;5113934;28;20202;-79
2022/12/04 03:00:57;;;;;;;21.07;11.77;;;;;;;1.00;100.00;99067.63;5113376;28;20210;-79
2022/12/04 03:03:30;;;;;;;19.30;10.90;;;;;;;1.05;100.00;99073.53;5113911;28;20220;-79
2022/12/04 03:06:02;;;;;;;19.33;12.03;;;;;;;1.03;100.00;99067.53;5078263;28;20223;-79
2022/12/04 03:08:35;;;;;;;22.03;11.97;;;;;;;1.00;100.00;99073.69;5113824;28;20194;-79
2022/12/04 03:11:03;;;;;;;18.97;11.17;;;;;;;1.07;100.00;99080.44;5112276;27;20281;-79
2022/12/04 03:13:39;;;;;;;20.63;12.20;;;;;;;1.04;100.00;99080.50;5113467;27;20199;-79
2022/12/04 03:16:15;;;;;;;21.73;12.10;;;;;;;0.93;100.00;99059.09;5108272;28;20190;-79
2022/12/04 03:18:49;;;;;;;24.70;12.07;;;;;;;1.08;100.00;99071.72;5113755;28;20210;-79
2022/12/04 03:21:23;;;;;;;22.07;12.33;;;;;;;1.04;100.00;99064.88;5110020;28;20214;-79
2022/12/04 03:23:57;;;;;;;20.63;11.63;;;;;;;0.97;100.00;99065.94;5108895;28;20232;-78
2022/12/04 03:26:31;;;;;;;22.00;11.40;;;;;;;1.05;100.00;99068.31;5110157;28;20236;-79
2022/12/04 03:29:06;;;;;;;20.90;12.23;;;;;;;0.90;100.00;99063.53;5113589;27;20195;-79
2022/12/04 03:31:44;;;;;;;22.27;11.53;;;;;;;0.88;100.00;99057.53;5113128;28;20235;-79
2022/12/04 03:34:16;;;;;;;18.80;11.23;;;;;;;0.81;100.00;99068.09;5114237;28;20606;-79
2022/12/04 03:36:51;;;;;;;21.03;11.43;;;;;;;0.81;100.00;99070.69;5111547;28;20195;-79
2022/12/04 03:39:25;;;;;;;19.40;11.37;;;;;;;0.78;100.00;99051.69;5112925;28;20198;-79
2022/12/04 03:41:59;;;;;;;22.37;11.27;;;;;;;0.81;100.00;99054.22;5107789;28;20215;-79
2022/12/04 03:44:35;;;;;;;22.90;11.87;;;;;;;0.77;100.00;99055.16;5078112;28;20247;-79
2022/12/04 03:47:10;;;;;;;18.00;11.30;;;;;;;0.81;100.00;99054.22;5109901;28;20191;-79
2022/12/04 03:49:44;;;;;;;19.37;11.10;;;;;;;0.87;100.00;99056.66;5107188;28;20202;-79
2022/12/04 03:52:20;;;;;;;19.50;11.87;;;;;;;0.93;100.00;99061.69;5112750;28;20191;-79
2022/12/04 03:54:53;;;;;;;18.60;10.60;;;;;;;1.01;100.00;99074.53;5111533;28;20301;-79
2022/12/04 03:57:26;;;;;;;19.00;11.60;;;;;;;1.12;100.00;99075.09;5111199;28;20191;-79
2022/12/04 04:00:03;;;;;;;19.23;11.03;;;;;;;1.10;100.00;99069.94;5113485;28;20187;-79
2022/12/04 04:02:39;;;;;;;21.37;11.40;;;;;;;0.80;100.00;99065.53;5113433;28;20323;-79
2022/12/04 04:05:11;;;;;;;19.97;11.07;;;;;;;0.79;100.00;99051.66;5111772;28;20209;-79
2022/12/04 04:07:44;;;;;;;20.80;11.50;;;;;;;0.86;100.00;99063.59;5112388;28;20238;-79
2022/12/04 04:10:15;;;;;;;21.13;12.27;;;;;;;0.78;100.00;99062.13;5111598;28;20195;-79
2022/12/04 04:24:13;;;;;;;19.63;11.50;;;;;;;0.97;100.00;99058.13;5110703;28;20207;-79
2022/12/04 04:24:16;;;;;;;19.73;11.57;;;;;;;0.93;100.00;99055.63;5115281;27;20226;-79
2022/12/04 04:26:47;;;;;;;19.97;11.83;;;;;;;0.88;100.00;99058.38;5114095;27;20195;-79
2022/12/04 04:29:16;;;;;;;18.93;10.93;;;;;;;0.97;100.00;99060.75;5112964;28;20650;-79
2022/12/04 04:31:52;;;;;;;17.57;11.20;;;;;;;0.99;100.00;99068.50;5106667;28;20195;-79
2022/12/04 04:34:31;;;;;;;19.70;11.20;;;;;;;0.95;100.00;99059.03;5111451;28;20186;-79
2022/12/04 04:37:06;;;;;;;18.07;11.10;;;;;;;0.88;100.00;99060.13;5110999;28;20698;-79
2022/12/04 04:39:39;;;;;;;18.87;11.73;;;;;;;0.83;100.00;99055.88;5114404;28;20248;-80
2022/12/04 04:42:16;;;;;;;18.70;10.83;;;;;;;1.09;100.00;99055.19;5116699;28;20224;-79
2022/12/04 04:44:51;;;;;;;18.57;11.27;;;;;;;0.88;100.00;99058.38;5112690;28;20322;-79
2022/12/04 04:47:28;;;;;;;17.07;10.23;;;;;;;0.95;100.00;99049.47;5118977;27;20225;-79
2022/12/04 04:50:02;;;;;;;18.87;11.50;;;;;;;0.99;100.00;99064.16;5116601;28;20190;-79
2022/12/04 04:52:31;;;;;;;23.70;12.67;;;;;;;0.82;100.00;99051.56;5114370;28;20222;-79
2022/12/04 04:55:01;;;;;;;23.80;11.90;;;;;;;0.88;100.00;99044.50;5117652;27;20195;-79
2022/12/04 04:57:30;;;;;;;20.83;12.23;;;;;;;0.87;100.00;99048.84;5116382;28;20213;-79
2022/12/04 04:59:59;;;;;;;23.00;12.80;;;;;;;0.84;100.00;99049.75;5115272;27;20649;-79
2022/12/04 05:02:30;;;;;;;20.00;12.00;;;;;;;0.79;100.00;99046.44;5111694;28;20217;-78
2022/12/04 05:05:00;;;;;;;20.40;11.93;;;;;;;0.99;100.00;99053.72;5113549;28;20217;-79
2022/12/04 05:07:28;;;;;;;19.87;12.13;;;;;;;1.05;100.00;99056.13;5115703;28;20217;-79
2022/12/04 05:09:57;;;;;;;21.70;12.30;;;;;;;1.01;100.00;99049.31;5112928;28;20273;-79
2022/12/04 05:12:29;;;;;;;21.93;12.30;;;;;;;0.91;100.00;99055.69;5114634;28;20642;-79
2022/12/04 05:14:58;;;;;;;18.13;11.63;;;;;;;0.82;100.00;99058.53;5115345;27;20203;-79
2022/12/04 05:17:30;;;;;;;16.63;10.83;;;;;;;1.04;100.00;99061.41;5114219;28;20187;-79
2022/12/04 05:20:00;;;;;;;19.83;12.37;;;;;;;1.10;100.00;99062.09;5115636;28;20202;-79
2022/12/04 05:22:31;;;;;;;18.00;10.73;;;;;;;1.25;100.00;99060.81;5115448;28;20219;-79
2022/12/04 05:25:00;;;;;;;19.17;11.47;;;;;;;1.12;100.00;99056.84;5107218;28;20191;-79
2022/12/04 05:27:30;;;;;;;19.10;11.60;;;;;;;1.08;100.00;99060.44;5115517;28;20187;-78
2022/12/04 05:30:02;;;;;;;19.00;11.50;;;;;;;1.14;100.00;99047.22;5115663;28;20245;-79
2022/12/04 05:32:30;;;;;;;22.03;12.87;;;;;;;0.99;100.00;99056.34;5115678;28;20243;-79
2022/12/04 05:34:58;;;;;;;22.60;13.93;;;;;;;0.91;100.00;99062.66;5111831;28;20199;-79
2022/12/04 05:37:28;;;;;;;20.77;12.00;;;;;;;1.10;100.00;99069.94;5115671;28;20198;-79
2022/12/04 05:39:57;;;;;;;21.60;13.37;;;;;;;0.81;100.00;99067.25;5114658;28;20187;-79
2022/12/04 05:42:26;;;;;;;22.03;13.33;;;;;;;0.98;100.00;99062.44;5109222;28;20221;-79
2022/12/04 05:44:54;;;;;;;23.50;13.70;;;;;;;1.02;100.00;99058.00;5110340;28;20198;-79
2022/12/04 05:47:23;;;;;;;23.60;13.60;;;;;;;0.99;100.00;99064.16;5114369;27;20188;-79
2022/12/04 05:49:51;;;;;;;25.83;14.17;;;;;;;0.95;100.00;99070.31;5122480;27;20183;-79
2022/12/04 05:52:19;;;;;;;22.80;13.53;;;;;;;0.96;100.00;99072.03;5120716;27;20199;-80
2022/12/04 05:54:49;;;;;;;24.87;15.00;;;;;;;1.08;100.00;99078.69;5109499;28;20631;-79
2022/12/04 05:57:17;;;;;;;21.57;12.80;;;;;;;1.17;100.00;99072.38;5117892;27;20199;-79
2022/12/04 05:59:45;;;;;;;20.90;12.83;;;;;;;1.03;100.00;99077.94;5115059;27;20199;-79
2022/12/04 06:02:14;;;;;;;22.37;12.07;;;;;;;1.17;100.00;99075.00;5071371;28;20260;-79
2022/12/04 06:04:42;;;;;;;23.57;12.70;;;;;;;1.18;100.00;99069.72;5115171;28;20270;-79
2022/12/04 06:07:11;;;;;;;24.97;13.03;;;;;;;1.06;100.00;99063.09;5111171;28;20231;-79
2022/12/04 06:09:40;;;;;;;29.67;16.47;;;;;;;1.06;100.00;99064.81;5113556;28;20203;-79
2022/12/04 06:12:09;;;;;;;26.40;15.90;;;;;;;1.11;100.00;99058.59;5114979;28;20236;-79
2022/12/04 06:14:38;;;;;;;32.67;19.57;;;;;;;1.07;100.00;99051.78;5075854;28;20195;-78
2022/12/04 06:17:10;;;;;;;22.43;12.87;;;;;;;1.12;100.00;99052.47;5109502;28;20199;-79
2022/12/04 06:19:40;;;;;;;31.30;17.67;;;;;;;1.18;100.00;99066.25;5112645;28;20684;-78
2022/12/04 06:22:09;;;;;;;39.60;20.57;;;;;;;1.19;100.00;99061.00;5106880;28;20226;-79
2022/12/04 06:24:37;;;;;;;42.07;25.27;;;;;;;1.16;100.00;99055.88;5113360;27;20199;-79
2022/12/04 06:27:08;;;;;;;39.60;23.43;;;;;;;1.15;100.00;99054.13;5079271;28;20264;-79
2022/12/04 06:29:58;;;;;;;30.57;17.00;;;;;;;1.04;100.00;99049.22;5114231;28;20286;-79
2022/12/04 06:32:27;;;;;;;29.10;14.70;;;;;;;1.08;100.00;99050.00;5108595;28;20187;-79
2022/12/04 06:34:56;;;;;;;22.30;13.23;;;;;;;1.09;100.00;99055.19;5116802;27;20276;-79
2022/12/04 06:37:26;;;;;;;29.13;16.10;;;;;;;1.06;100.00;99057.88;5114567;28;20190;-79
2022/12/04 06:39:54;;;;;;;31.73;17.80;;;;;;;1.07;100.00;99056.97;5113315;28;20202;-79
2022/12/04 06:42:24;;;;;;;31.17;17.73;;;;;;;1.10;100.00;99061.25;5113972;28;20214;-79
2022/12/04 06:44:52;;;;;;;28.17;14.87;;;;;;;1.06;100.00;99065.72;5114186;28;20205;-79
2022/12/04 06:47:24;;;;;;;26.93;14.90;;;;;;;1.09;100.00;99057.78;5113490;27;20222;-79
2022/12/04 06:49:52;;;;;;;25.20;13.77;;;;;;;1.09;100.00;99065.63;5109241;28;20191;-79
2022/12/04 06:52:21;;;;;;;25.37;14.10;;;;;;;1.03;100.00;99070.97;5114275;28;20195;-79
2022/12/04 06:54:49;;;;;;;24.67;14.63;;;;;;;1.03;100.00;99068.38;5112643;28;20421;-79
2022/12/04 06:57:17;;;;;;;29.83;15.43;;;;;;;1.08;100.00;99066.50;5109636;28;20191;-79
2022/12/04 06:59:46;;;;;;;30.13;14.33;;;;;;;1.18;100.00;99080.16;5113480;28;20199;-79
2022/12/04 07:02:14;;;;;;;30.33;16.57;;;;;;;1.06;100.00;99075.25;5107684;28;20231;-79
2022/12/04 07:04:44;;;;;;;31.03;17.47;;;;;;;1.07;100.00;99077.84;5112252;28;20199;-78
2022/12/04 07:07:12;;;;;;;32.80;16.73;;;;;;;1.17;100.00;99081.06;5113550;28;20222;-79
2022/12/04 07:09:41;;;;;;;33.00;16.33;;;;;;;1.10;100.00;99076.91;5110709;28;20191;-79
2022/12/04 07:12:10;;;;;;;27.50;14.23;;;;;;;1.09;100.00;99065.63;5111587;28;20191;-79
2022/12/04 07:14:39;;;;;;;25.93;14.03;;;;;;;1.15;100.00;99072.41;5077821;28;20236;-79
2022/12/04 07:17:07;;;;;;;32.90;15.53;;;;;;;1.20;100.00;99061.84;5113289;28;20191;-79
2022/12/04 07:19:35;;;;;;;30.57;14.93;;;;;;;1.19;100.00;99062.75;5111299;28;20650;-79
2022/12/04 07:22:07;;;;;;;29.13;14.33;;;;;;;1.10;100.00;99067.31;5111501;28;20191;-79
2022/12/04 07:24:37;;;;;;;29.03;14.77;;;;;;;1.11;100.00;99070.78;5107520;28;20287;-79
2022/12/04 07:27:05;;;;;;;25.60;14.20;;;;;;;1.11;100.00;99069.03;5109943;28;20663;-79
2022/12/04 07:29:34;;;;;;;25.77;14.47;;;;;;;1.10;100.00;99077.75;5109436;28;20283;-80
2022/12/04 07:32:02;;;;;;;31.30;15.80;;;;;;;1.10;100.00;99076.91;5109846;28;20187;-79
2022/12/04 07:34:33;;;;;;;31.53;15.47;;;;;;;1.10;100.00;99087.31;5112341;28;20205;-79
2022/12/04 07:37:03;;;;;;;27.90;16.00;;;;;;;1.11;100.00;99087.28;5112947;28;20186;-79
2022/12/04 07:39:33;;;;;;;30.40;15.73;;;;;;;1.13;100.00;99087.25;5113769;28;20202;-79
2022/12/04 07:42:01;;;;;;;33.53;15.87;;;;;;;1.19;100.00;99094.91;5113353;28;20202;-79
2022/12/04 07:44:31;;;;;;;31.47;15.03;;;;;;;1.20;100.00;99090.53;5085935;28;20685;-79
2022/12/04 07:46:59;;;;;;;29.90;14.60;;;;;;;1.23;100.00;99093.06;5111004;28;20351;-79
2022/12/04 07:49:28;;;;;;;32.83;15.83;;;;;;;1.29;100.00;99098.13;5111109;28;20205;-79
2022/12/04 07:51:56;;;;;;;31.27;16.33;;;;;;;1.19;100.00;99091.44;5105322;28;20260;-79
2022/12/04 07:54:26;;;;;;;30.67;15.23;;;;;;;1.28;100.00;99094.66;5112867;28;20662;-79
2022/12/04 07:56:56;;;;;;;31.53;16.43;;;;;;;1.35;100.00;99087.50;5112657;28;20664;-79
2022/12/04 07:59:24;;;;;;;34.60;16.50;;;;;;;1.30;100.00;99087.63;5105104;28;20222;-79
2022/12/04 08:01:54;;;;;;;35.27;16.03;;;;;;;1.29;100.00;99085.94;5110456;28;20199;-79
2022/12/04 08:04:22;;;;;;;31.73;16.60;;;;;;;1.28;100.00;99081.63;5109545;28;20219;-79
2022/12/04 08:06:51;;;;;;;33.20;15.23;;;;;;;1.30;100.00;99071.97;5112998;28;20230;-79
2022/12/04 08:09:20;;;;;;;34.10;16.33;;;;;;;1.31;100.00;99076.31;5111138;28;20187;-79
2022/12/04 08:11:48;;;;;;;37.33;16.07;;;;;;;1.28;100.00;99079.00;5110958;28;20202;-79
2022/12/04 08:14:18;;;;;;;34.90;16.17;;;;;;;1.30;100.00;99078.97;5054710;28;20193;-79
2022/12/04 08:16:50;;;;;;;34.90;17.03;;;;;;;1.50;100.00;99078.41;5033691;28;20201;-79
2022/12/04 08:19:21;;;;;;;32.80;15.87;;;;;;;1.48;100.00;99072.38;4993778;28;20286;-79
2022/12/04 08:21:50;;;;;;;33.97;16.87;;;;;;;1.40;100.00;99073.44;4994415;28;20226;-79
2022/12/04 08:24:18;;;;;;;33.37;16.43;;;;;;;1.35;100.00;99064.00;4937375;29;20212;-79
2022/12/04 08:26:47;;;;;;;34.77;16.90;;;;;;;1.35;100.00;99064.91;4935865;29;20192;-79
2022/12/04 08:29:15;;;;;;;30.43;15.60;;;;;;;1.45;100.00;99070.72;4934117;29;20256;-79
2022/12/04 08:31:45;;;;;;;28.70;14.73;;;;;;;1.42;100.00;99084.69;4924455;29;20200;-79
2022/12/04 08:34:14;;;;;;;31.83;15.97;;;;;;;1.46;100.00;99074.19;4933324;29;20196;-79
2022/12/04 08:36:42;;;;;;;31.43;15.30;;;;;;;1.43;100.00;99078.56;4943146;29;20201;-80
2022/12/04 08:39:12;;;;;;;32.60;15.43;;;;;;;1.46;100.00;99079.41;4974560;28;20242;-79
2022/12/04 08:41:40;;;;;;;33.07;15.93;;;;;;;1.48;100.00;99075.84;5014218;28;20254;-79
2022/12/04 08:44:10;;;;;;;30.00;15.17;;;;;;;1.56;100.00;99081.69;5103101;28;20246;-79
2022/12/04 08:46:39;;;;;;;31.03;15.00;;;;;;;1.48;100.00;99074.97;5123575;28;20201;-79
2022/12/04 08:49:09;;;;;;;30.20;14.23;;;;;;;1.56;100.00;99076.47;5117780;28;20198;-79
2022/12/04 08:51:37;;;;;;;28.37;14.23;;;;;;;1.50;100.00;99091.44;5122448;27;20256;-79
2022/12/04 08:54:09;;;;;;;29.40;15.27;;;;;;;1.60;100.00;99095.50;5119784;27;20198;-79
2022/12/04 08:56:38;;;;;;;29.67;16.37;;;;;;;1.56;100.00;99096.50;5118449;27;20194;-79
2022/12/04 08:59:06;;;;;;;27.40;14.27;;;;;;;1.56;100.00;99099.97;5117244;27;20195;-79
2022/12/04 09:01:34;;;;;;;32.27;15.47;;;;;;;1.63;100.00;99090.19;5118996;27;20191;-79
2022/12/04 09:04:03;;;;;;;31.00;16.50;;;;;;;1.56;100.00;99099.97;5112837;28;20302;-79
2022/12/04 09:06:33;;;;;;;28.30;15.27;;;;;;;1.62;100.00;99096.31;5120897;27;20269;-79
2022/12/04 09:09:01;;;;;;;30.87;15.27;;;;;;;1.69;100.00;99096.09;5100606;28;20228;-79
2022/12/04 09:11:31;;;;;;;26.20;13.03;;;;;;;1.72;100.00;99082.94;5115947;27;20199;-80
2022/12/04 09:14:02;;;;;;;31.57;14.80;;;;;;;1.72;100.00;99082.94;5056742;28;20205;-79
2022/12/04 09:16:31;;;;;;;25.13;14.43;;;;;;;1.67;100.00;99087.44;5052749;28;20185;-79
2022/12/04 09:19:03;;;;;;;28.00;14.77;;;;;;;1.70;100.00;99083.88;5028205;28;20195;-78
2022/12/04 09:21:33;;;;;;;31.10;15.57;;;;;;;1.62;100.00;99083.25;5064652;28;20246;-79
2022/12/04 09:24:01;;;;;;;28.07;15.37;;;;;;;1.65;100.00;99084.03;5051597;28;20217;-79
2022/12/04 09:26:32;;;;;;;30.47;15.57;;;;;;;1.58;100.00;99086.88;5060045;28;20189;-79
2022/12/04 09:29:06;;;;;;;29.23;16.10;;;;;;;1.75;100.00;99089.84;5053004;28;20196;-79
2022/12/04 09:31:35;;;;;;;31.40;16.63;;;;;;;1.71;100.00;99096.88;5069642;28;20191;-80
2022/12/04 09:34:04;;;;;;;32.47;17.13;;;;;;;1.61;100.00;99078.94;5114662;28;20763;-79
2022/12/04 09:36:34;;;;;;;52.10;29.03;;;;;;;1.70;100.00;99076.06;5113854;28;20222;-80
2022/12/04 09:39:05;;;;;;;46.40;28.40;;;;;;;1.72;100.00;99069.88;5110326;28;20255;-80
2022/12/04 09:42:11;;;;;;;45.43;25.03;;;;;;;1.62;100.00;99058.00;5114446;28;20195;-79
2022/12/04 09:44:45;;;;;;;35.80;19.17;;;;;;;1.64;100.00;99063.16;5115715;28;20211;-80
2022/12/04 09:47:22;;;;;;;48.60;28.60;;;;;;;1.64;100.00;99057.94;5112655;28;20207;-79
2022/12/04 09:49:56;;;;;;;34.63;18.93;;;;;;;1.66;100.00;99058.78;5114975;28;20607;-79
2022/12/04 09:52:35;;;;;;;46.83;29.00;;;;;;;1.72;100.00;99062.03;5114931;28;20187;-79
2022/12/04 09:55:12;;;;;;;36.50;19.60;;;;;;;1.61;100.00;99071.09;5114741;28;20195;-79
2022/12/04 09:57:44;;;;;;;35.67;19.97;;;;;;;1.66;100.00;99069.22;5113282;28;20198;-79
2022/12/04 10:00:15;;;;;;;36.27;20.27;;;;;;;1.53;100.00;99071.31;5096894;28;20211;-79
2022/12/04 10:02:48;;;;;;;39.77;21.63;;;;;;;1.59;100.00;99065.06;5112564;28;20288;-79
2022/12/04 10:05:20;;;;;;;36.90;21.00;;;;;;;1.59;100.00;99058.09;5113471;28;20226;-79
2022/12/04 10:08:00;;;;;;;37.73;18.90;;;;;;;1.64;100.00;99055.34;5113102;28;20234;-79
2022/12/04 10:10:38;;;;;;;47.70;28.30;;;;;;;1.77;100.00;99056.72;5112163;28;20202;-79
2022/12/04 10:13:22;;;;;;;32.97;18.43;;;;;;;1.78;100.00;99055.81;5114633;28;20217;-79
2022/12/04 10:15:59;;;;;;;34.47;18.37;;;;;;;1.81;100.00;99053.09;5114587;28;20198;-79
2022/12/04 10:18:41;;;;;;;39.50;20.30;;;;;;;1.80;100.00;99058.38;5114875;28;20198;-79
2022/12/04 10:21:34;;;;;;;36.30;18.93;;;;;;;1.79;100.00;99049.69;5118791;27;20215;-79
2022/12/04 10:24:16;;;;;;;60.17;28.10;;;;;;;1.77;100.00;99051.47;5115456;28;20663;-80
2022/12/04 10:26:46;;;;;;;29.50;17.17;;;;;;;1.77;100.00;99048.88;5114856;28;20191;-79
2022/12/04 10:29:20;;;;;;;31.93;17.13;;;;;;;1.81;100.00;99047.00;5114938;28;20187;-78
2022/12/04 10:31:54;;;;;;;32.57;18.20;;;;;;;1.76;100.00;99054.16;5113430;28;20183;-79
2022/12/04 10:34:27;;;;;;;31.77;16.50;;;;;;;1.76;100.00;99052.38;5109446;28;20191;-79
2022/12/04 10:37:00;;;;;;;29.20;15.57;;;;;;;1.83;100.00;99047.81;5113946;28;20202;-79
2022/12/04 10:39:37;;;;;;;33.80;19.17;;;;;;;1.91;100.00;99051.06;5116122;28;20194;-79
2022/12/04 10:42:23;;;;;;;29.40;16.67;;;;;;;2.00;100.00;99056.00;5077188;28;20198;-79
2022/12/04 10:44:52;;;;;;;32.23;17.03;;;;;;;2.06;100.00;99049.72;5114134;28;20306;-79
2022/12/04 10:47:23;;;;;;;33.57;18.77;;;;;;;2.00;100.00;99046.41;5107731;28;20198;-79
2022/12/04 10:49:59;;;;;;;32.03;16.93;;;;;;;1.96;100.00;99044.78;5116557;27;20199;-79
2022/12/04 10:52:30;;;;;;;31.70;17.33;;;;;;;1.95;100.00;99037.00;5113207;28;20198;-79
2022/12/04 10:55:02;;;;;;;29.33;16.93;;;;;;;2.21;100.00;99039.63;5112876;28;20191;-79
2022/12/04 10:57:38;;;;;;;30.23;17.27;;;;;;;1.98;100.00;99042.13;5114035;27;20203;-79
2022/12/04 11:00:24;;;;;;;31.20;17.73;;;;;;;2.14;100.00;99037.28;5114118;28;20240;-79
2022/12/04 11:02:55;;;;;;;33.00;17.87;;;;;;;2.18;100.00;99031.06;5115101;28;20191;-79
2022/12/04 11:05:27;;;;;;;37.43;19.33;;;;;;;2.18;100.00;99020.59;5111639;28;20401;-79
2022/12/04 11:07:57;;;;;;;35.03;18.80;;;;;;;2.18;100.00;99011.00;5112334;28;20646;-79
2022/12/04 11:10:35;;;;;;;44.10;23.20;;;;;;;2.24;100.00;99002.13;5110948;28;20195;-79
2022/12/04 11:13:06;;;;;;;46.07;24.57;;;;;;;2.15;100.00;99003.28;5113580;28;20240;-80
2022/12/04 11:15:36;;;;;;;35.40;19.73;;;;;;;2.24;100.00;99009.97;5113761;28;20191;-79
2022/12/04 11:18:09;;;;;;;33.13;17.57;;;;;;;2.21;100.00;99000.44;5115879;27;20230;-79
2022/12/04 11:20:37;;;;;;;29.23;15.73;;;;;;;2.23;100.00;98996.03;5112084;27;20255;-79
2022/12/04 11:23:16;;;;;;;30.23;17.30;;;;;;;2.26;100.00;98997.69;5113189;28;20205;-79
2022/12/04 11:25:49;;;;;;;29.63;16.70;;;;;;;2.17;100.00;98998.00;5114136;27;20222;-79
2022/12/04 11:28:20;;;;;;;30.23;16.70;;;;;;;2.15;100.00;98997.19;5113478;28;20191;-78
2022/12/04 11:31:15;;;;;;;27.90;14.30;;;;;;;2.23;100.00;98988.22;5113370;28;20213;-79
2022/12/04 11:33:48;;;;;;;29.07;15.83;;;;;;;2.07;100.00;98986.16;5091578;28;20198;-78
2022/12/04 11:36:21;;;;;;;25.23;14.30;;;;;;;2.07;100.00;98976.53;5113298;28;20203;-79
2022/12/04 11:38:51;;;;;;;26.57;15.13;;;;;;;2.09;100.00;98974.72;5111870;28;20244;-79
2022/12/04 11:41:27;;;;;;;29.17;16.90;;;;;;;2.19;100.00;98970.06;5111552;27;20195;-79
2022/12/04 11:43:56;;;;;;;24.10;14.10;;;;;;;2.21;100.00;98958.66;5113327;28;20221;-79
2022/12/04 11:46:32;;;;;;;26.33;14.27;;;;;;;2.19;100.00;98949.16;5111998;28;20227;-79